Time;durP1;ratioP1;P1;durP2;ratioP2;P2;SDS_P1;SDS_P2;PMS_P1;PMS_P2;Temp;Humidity;BMP_temperature;BMP_pressure;BME280_temperature;BME280_humidity;BME280_pressure;Samples;Min_cycle;Max_cycle;Signal;HPM_P1;HPM_P2
2023/05/10 00:00:24;;;;;;;2.38;1.40;;;13.60;91.40;;;;;;5116086;28;20031;-77
2023/05/10 00:02:49;;;;;;;1.80;1.23;;;13.60;91.30;;;;;;5115321;28;20119;-77
2023/05/10 00:05:15;;;;;;;2.80;1.42;;;13.60;91.40;;;;;;5116734;28;20043;-77
2023/05/10 00:07:44;;;;;;;2.33;1.40;;;13.60;91.30;;;;;;5134691;28;20027;-78
2023/05/10 00:10:10;;;;;;;2.20;1.30;;;13.60;91.30;;;;;;5134736;28;20042;-77
2023/05/10 00:12:36;;;;;;;2.58;1.33;;;13.60;91.40;;;;;;5134872;28;20042;-77
2023/05/10 00:15:02;;;;;;;3.15;1.65;;;13.60;91.30;;;;;;5116308;28;20035;-77
2023/05/10 00:17:28;;;;;;;2.03;1.55;;;13.60;91.40;;;;;;5134684;28;20031;-77
2023/05/10 00:19:54;;;;;;;2.75;1.50;;;13.50;91.30;;;;;;5134746;28;20395;-77
2023/05/10 00:22:20;;;;;;;2.92;1.73;;;13.70;91.40;;;;;;5135024;28;20441;-77
2023/05/10 00:24:46;;;;;;;2.80;1.80;;;13.60;91.40;;;;;;5134868;28;20187;-77
2023/05/10 00:27:11;;;;;;;2.95;1.73;;;13.60;91.40;;;;;;5134827;28;20479;-77
2023/05/10 00:29:37;;;;;;;3.72;2.00;;;13.60;91.40;;;;;;5114777;28;20380;-77
2023/05/10 00:32:03;;;;;;;2.75;1.60;;;13.60;91.40;;;;;;5134253;28;20487;-77
2023/05/10 00:34:29;;;;;;;3.25;1.85;;;13.60;91.40;;;;;;5133088;27;20087;-77
2023/05/10 00:36:54;;;;;;;3.33;1.83;;;13.60;91.40;;;;;;5134142;28;20059;-77
2023/05/10 00:39:20;;;;;;;3.30;1.80;;;13.60;91.40;;;;;;5134292;28;20530;-77
2023/05/10 00:41:45;;;;;;;3.08;1.70;;;13.50;91.40;;;;;;5115444;28;20043;-77
2023/05/10 00:44:11;;;;;;;3.40;1.92;;;13.60;91.40;;;;;;5115836;28;20039;-77
2023/05/10 00:46:37;;;;;;;4.18;2.20;;;13.50;91.40;;;;;;5097219;28;20116;-77
2023/05/10 00:49:03;;;;;;;4.20;2.10;;;13.50;91.40;;;;;;5134219;28;20075;-77
2023/05/10 00:51:28;;;;;;;2.65;1.70;;;13.50;91.40;;;;;;5134144;28;20035;-77
2023/05/10 00:53:55;;;;;;;3.85;2.20;;;13.60;91.40;;;;;;5115770;28;20394;-77
2023/05/10 00:56:22;;;;;;;2.72;1.70;;;13.60;91.40;;;;;;5134086;28;20122;-77
2023/05/10 00:58:49;;;;;;;3.42;2.00;;;13.60;91.40;;;;;;5115938;28;20118;-77
2023/05/10 01:01:14;;;;;;;3.10;1.70;;;13.50;91.40;;;;;;5134495;28;20067;-77
2023/05/10 01:03:41;;;;;;;3.13;1.55;;;13.50;91.40;;;;;;5115654;28;20074;-77
2023/05/10 01:06:07;;;;;;;2.95;1.70;;;13.50;91.40;;;;;;5098682;28;20062;-76
2023/05/10 01:08:33;;;;;;;3.78;2.10;;;13.50;91.40;;;;;;5115434;28;20095;-77
2023/05/10 01:10:59;;;;;;;3.00;1.90;;;13.50;91.40;;;;;;5133660;28;20486;-76
2023/05/10 01:13:42;;;;;;;3.20;1.95;;;13.60;91.50;;;;;;5115426;28;20172;-77
2023/05/10 01:16:08;;;;;;;4.57;2.47;;;13.50;91.40;;;;;;5133833;28;20066;-77
2023/05/10 01:18:39;;;;;;;4.28;2.45;;;13.60;91.40;;;;;;5115723;28;20043;-77
2023/05/10 01:21:31;;;;;;;5.13;2.22;;;13.50;91.40;;;;;;5133504;28;20088;-77
2023/05/10 01:24:20;;;;;;;4.30;2.47;;;13.50;91.40;;;;;;5133597;28;20080;-77
2023/05/10 01:27:12;;;;;;;3.97;2.22;;;13.50;91.40;;;;;;5133817;28;20040;-77
2023/05/10 01:30:18;;;;;;;3.92;2.03;;;13.50;91.50;;;;;;5133240;28;20043;-77
2023/05/10 01:33:07;;;;;;;4.28;2.53;;;13.50;91.40;;;;;;5118259;28;20054;-74
2023/05/10 01:35:50;;;;;;;4.72;2.58;;;13.50;91.40;;;;;;5133433;28;20431;-77
2023/05/10 01:38:33;;;;;;;4.53;2.28;;;13.50;91.40;;;;;;5133260;28;20050;-77
2023/05/10 01:41:12;;;;;;;3.80;2.10;;;13.50;91.40;;;;;;5133426;28;20509;-77
2023/05/10 01:43:55;;;;;;;3.83;1.98;;;13.50;91.40;;;;;;5133708;28;20047;-76
2023/05/10 01:46:31;;;;;;;2.85;1.70;;;13.40;91.40;;;;;;5113962;28;20054;-77
2023/05/10 01:49:00;;;;;;;2.97;1.77;;;13.50;91.40;;;;;;5113061;28;20069;-77
2023/05/10 01:51:31;;;;;;;3.80;2.10;;;13.50;91.40;;;;;;5133065;28;20070;-74
2023/05/10 01:54:02;;;;;;;3.17;1.90;;;13.50;91.40;;;;;;5097787;28;20043;-74
2023/05/10 01:56:30;;;;;;;3.47;2.00;;;13.60;91.40;;;;;;5133497;28;20035;-77
2023/05/10 01:58:58;;;;;;;3.35;1.90;;;13.50;91.40;;;;;;5133447;28;20045;-77
2023/05/10 02:01:26;;;;;;;4.25;2.20;;;13.50;91.40;;;;;;5133441;28;20043;-77
2023/05/10 02:03:55;;;;;;;2.92;1.83;;;13.50;91.40;;;;;;5132800;28;20055;-76
2023/05/10 02:06:23;;;;;;;3.53;1.80;;;13.50;91.50;;;;;;5132909;28;20465;-76
2023/05/10 02:08:51;;;;;;;3.45;1.88;;;13.60;91.50;;;;;;5133414;28;20043;-76
2023/05/10 02:11:18;;;;;;;3.78;1.98;;;13.50;91.50;;;;;;5132952;28;20067;-76
2023/05/10 02:13:47;;;;;;;3.15;1.65;;;13.60;91.50;;;;;;5132827;28;20110;-74
2023/05/10 02:16:13;;;;;;;3.25;1.85;;;13.50;91.50;;;;;;5133232;28;20101;-76
2023/05/10 02:18:40;;;;;;;3.38;1.85;;;13.50;91.50;;;;;;5132612;28;20103;-77
2023/05/10 02:21:07;;;;;;;3.22;1.83;;;13.60;91.50;;;;;;5132854;28;20043;-76
2023/05/10 02:23:35;;;;;;;3.13;1.83;;;13.50;91.60;;;;;;5133314;28;20042;-77
2023/05/10 02:26:02;;;;;;;2.63;1.70;;;13.60;91.60;;;;;;5133282;28;20039;-76
2023/05/10 02:28:29;;;;;;;3.03;1.75;;;13.50;91.60;;;;;;5133327;28;20039;-76
2023/05/10 02:30:55;;;;;;;4.20;1.90;;;13.50;91.60;;;;;;5114260;28;20059;-76
2023/05/10 02:33:22;;;;;;;3.78;2.10;;;13.50;91.60;;;;;;5132592;28;20099;-76
2023/05/10 02:35:50;;;;;;;4.00;2.20;;;13.50;91.60;;;;;;5132675;28;20085;-76
2023/05/10 02:38:16;;;;;;;4.13;2.35;;;13.50;91.60;;;;;;5132569;28;20063;-76
2023/05/10 02:40:44;;;;;;;3.65;2.20;;;13.50;91.60;;;;;;5114034;28;20043;-76
2023/05/10 02:43:14;;;;;;;3.90;2.00;;;13.50;91.60;;;;;;5132767;28;20054;-76
2023/05/10 02:45:41;;;;;;;3.03;1.75;;;13.40;91.60;;;;;;5132399;28;20080;-76
2023/05/10 02:48:07;;;;;;;4.80;2.17;;;13.50;91.60;;;;;;5112994;28;20063;-76
2023/05/10 02:50:35;;;;;;;3.80;2.05;;;13.50;91.60;;;;;;5132263;28;20082;-76
2023/05/10 02:53:03;;;;;;;5.38;2.53;;;13.40;91.60;;;;;;5114019;28;20039;-75
2023/05/10 02:55:36;;;;;;;4.85;2.50;;;13.50;91.70;;;;;;5132359;28;20405;-75
2023/05/10 02:58:02;;;;;;;5.57;2.63;;;13.50;91.70;;;;;;5134091;27;20118;-75
2023/05/10 03:00:29;;;;;;;4.75;2.50;;;13.40;91.60;;;;;;5136059;28;20039;-75
2023/05/10 03:02:54;;;;;;;5.38;2.45;;;13.40;91.70;;;;;;5135807;28;20050;-76
2023/05/10 03:05:20;;;;;;;4.20;2.53;;;13.40;91.70;;;;;;5135706;28;20047;-75
2023/05/10 03:07:46;;;;;;;6.95;3.15;;;13.40;91.70;;;;;;5117145;28;20114;-75
2023/05/10 03:10:12;;;;;;;5.45;2.95;;;13.40;91.70;;;;;;5117786;28;20118;-75
2023/05/10 03:13:10;;;;;;;4.65;2.85;;;13.40;91.70;;;;;;5135775;28;20616;-75
2023/05/10 03:15:57;;;;;;;5.38;3.25;;;13.30;91.70;;;;;;5135586;28;20043;-76
2023/05/10 03:18:28;;;;;;;5.25;2.70;;;13.30;91.70;;;;;;5117132;28;20054;-75
2023/05/10 03:21:01;;;;;;;4.93;2.60;;;13.30;91.70;;;;;;5118128;28;20035;-75
2023/05/10 03:23:33;;;;;;;5.97;3.15;;;13.20;91.70;;;;;;5135747;28;20074;-75
2023/05/10 03:26:00;;;;;;;4.72;2.50;;;13.20;91.70;;;;;;5135808;28;20042;-75
2023/05/10 03:28:27;;;;;;;5.65;3.00;;;13.20;91.70;;;;;;5135655;28;20042;-76
2023/05/10 03:30:54;;;;;;;4.95;2.58;;;13.20;91.80;;;;;;5115269;28;20043;-76
2023/05/10 03:33:20;;;;;;;4.85;2.63;;;13.20;91.80;;;;;;5100444;28;20371;-75
2023/05/10 03:35:45;;;;;;;4.53;2.58;;;13.20;91.80;;;;;;5116817;28;20061;-75
2023/05/10 03:38:12;;;;;;;4.68;2.72;;;13.20;91.80;;;;;;5116735;28;20096;-76
2023/05/10 03:40:38;;;;;;;4.88;2.35;;;13.10;91.80;;;;;;5135307;28;20064;-75
2023/05/10 03:43:04;;;;;;;5.45;2.78;;;13.20;91.80;;;;;;5135444;28;20043;-75
2023/05/10 03:45:30;;;;;;;4.32;2.38;;;13.20;91.80;;;;;;5135460;28;20043;-75
2023/05/10 03:47:57;;;;;;;6.50;2.88;;;13.20;91.80;;;;;;5116639;28;20069;-75
2023/05/10 03:50:23;;;;;;;4.97;2.75;;;13.20;91.80;;;;;;5134959;28;20176;-75
2023/05/10 03:52:48;;;;;;;3.95;2.25;;;13.20;91.80;;;;;;5116087;28;20479;-75
2023/05/10 03:55:14;;;;;;;4.70;2.40;;;13.10;91.80;;;;;;5135135;28;20366;-75
2023/05/10 03:57:40;;;;;;;4.55;2.53;;;13.10;91.80;;;;;;5135007;28;20054;-75
2023/05/10 04:00:06;;;;;;;4.25;2.58;;;13.10;91.80;;;;;;5135176;28;20081;-75
2023/05/10 04:02:31;;;;;;;4.25;2.17;;;13.10;91.80;;;;;;5099839;28;20050;-75
2023/05/10 04:04:57;;;;;;;4.63;2.28;;;13.10;91.80;;;;;;5135602;28;20036;-75
2023/05/10 04:07:23;;;;;;;4.63;2.28;;;13.10;91.80;;;;;;5135463;28;20367;-75
2023/05/10 04:09:48;;;;;;;4.22;2.40;;;13.10;91.80;;;;;;5134829;27;20069;-76
2023/05/10 04:12:14;;;;;;;4.55;2.10;;;13.10;91.80;;;;;;5135255;28;20473;-75
2023/05/10 04:14:40;;;;;;;4.00;1.98;;;13.10;91.80;;;;;;5134933;28;20035;-75
2023/05/10 04:17:05;;;;;;;3.30;1.80;;;13.10;91.80;;;;;;5116027;28;20528;-75
2023/05/10 04:19:31;;;;;;;5.32;2.40;;;13.10;91.80;;;;;;5135350;28;20058;-75
2023/05/10 04:21:57;;;;;;;4.15;2.15;;;13.10;91.80;;;;;;5116658;28;20115;-76
2023/05/10 04:24:23;;;;;;;4.38;2.33;;;13.10;92.10;;;;;;5116612;28;20088;-76
2023/05/10 04:26:49;;;;;;;3.88;2.05;;;13.00;91.80;;;;;;5116484;28;20051;-76
2023/05/10 04:29:15;;;;;;;3.60;2.17;;;13.10;91.80;;;;;;5135319;28;20043;-76
2023/05/10 04:31:40;;;;;;;4.20;2.20;;;13.00;91.80;;;;;;5114078;28;20078;-76
2023/05/10 04:34:06;;;;;;;3.60;1.83;;;13.10;91.80;;;;;;5134744;28;20182;-76
2023/05/10 04:36:35;;;;;;;3.55;1.77;;;13.10;91.80;;;;;;5134558;28;20134;-75
2023/05/10 04:39:02;;;;;;;3.25;1.95;;;13.00;91.80;;;;;;5114769;28;20043;-75
2023/05/10 04:41:28;;;;;;;2.97;1.70;;;13.10;91.80;;;;;;5135127;28;20118;-76
2023/05/10 04:43:54;;;;;;;4.35;2.15;;;13.00;91.80;;;;;;5134564;28;20135;-76
2023/05/10 04:46:19;;;;;;;3.83;1.95;;;13.10;91.80;;;;;;5134817;28;20039;-75
2023/05/10 04:48:45;;;;;;;3.17;1.90;;;13.10;91.80;;;;;;5134366;28;20035;-76
2023/05/10 04:51:11;;;;;;;3.35;1.83;;;13.10;91.80;;;;;;5134841;28;20031;-75
2023/05/10 04:53:36;;;;;;;4.15;2.22;;;13.10;91.80;;;;;;5134211;28;20037;-75
2023/05/10 04:56:02;;;;;;;4.72;2.08;;;13.10;91.80;;;;;;5134601;28;20054;-75
2023/05/10 04:58:27;;;;;;;4.55;2.30;;;13.10;91.80;;;;;;5134863;28;20084;-75
2023/05/10 05:00:53;;;;;;;4.13;2.22;;;13.10;91.80;;;;;;5115864;28;20088;-75
2023/05/10 05:03:19;;;;;;;3.28;1.85;;;13.10;91.80;;;;;;5134880;28;20043;-74
2023/05/10 05:05:44;;;;;;;4.15;1.95;;;13.10;91.80;;;;;;5134230;28;20114;-74
2023/05/10 05:08:10;;;;;;;3.80;1.88;;;13.10;91.80;;;;;;5134585;28;20051;-74
2023/05/10 05:10:36;;;;;;;3.85;1.98;;;13.10;91.80;;;;;;5134247;28;20042;-74
2023/05/10 05:13:01;;;;;;;4.03;2.10;;;13.20;91.80;;;;;;5113668;28;20477;-74
2023/05/10 05:15:27;;;;;;;4.07;2.22;;;13.10;91.80;;;;;;5133907;28;20035;-74
2023/05/10 05:17:53;;;;;;;3.35;2.10;;;13.10;91.80;;;;;;5116012;28;20384;-75
2023/05/10 05:20:18;;;;;;;4.55;2.20;;;13.20;91.80;;;;;;5133336;27;20036;-75
2023/05/10 05:22:44;;;;;;;3.55;1.77;;;13.20;91.80;;;;;;5134197;28;20118;-75
2023/05/10 05:25:11;;;;;;;3.92;1.90;;;13.20;91.70;;;;;;5133672;28;20436;-74
2023/05/10 05:27:37;;;;;;;4.38;2.15;;;13.20;91.70;;;;;;5114013;28;20391;-74
2023/05/10 05:30:04;;;;;;;4.47;2.17;;;13.20;91.70;;;;;;5133862;28;20070;-75
2023/05/10 05:32:30;;;;;;;3.65;2.10;;;13.20;91.70;;;;;;5133578;28;20043;-74
2023/05/10 05:34:56;;;;;;;3.72;2.00;;;13.20;91.80;;;;;;5134110;28;20084;-75
2023/05/10 05:37:22;;;;;;;3.67;1.88;;;13.20;91.80;;;;;;5115121;28;20039;-75
2023/05/10 05:39:48;;;;;;;4.18;2.00;;;13.20;91.80;;;;;;5133525;28;20040;-75
2023/05/10 05:42:15;;;;;;;5.07;2.67;;;13.30;91.80;;;;;;5133620;28;20045;-75
2023/05/10 05:44:41;;;;;;;4.15;2.22;;;13.20;91.70;;;;;;5114720;28;20104;-75
2023/05/10 05:47:06;;;;;;;3.90;2.15;;;13.20;91.70;;;;;;5098817;28;20046;-75
2023/05/10 05:49:32;;;;;;;4.25;2.30;;;13.30;91.70;;;;;;5133800;28;20050;-75
2023/05/10 05:52:00;;;;;;;3.80;1.80;;;13.30;91.70;;;;;;5114530;28;20070;-75
2023/05/10 05:54:26;;;;;;;4.20;1.95;;;13.30;91.70;;;;;;5115387;28;20066;-75
2023/05/10 05:56:55;;;;;;;4.07;2.45;;;13.30;91.70;;;;;;5133438;28;20490;-75
2023/05/10 05:59:21;;;;;;;3.42;1.92;;;13.30;91.70;;;;;;5133263;28;20038;-75
2023/05/10 06:01:47;;;;;;;4.22;1.92;;;13.30;91.70;;;;;;5115260;28;20051;-75
2023/05/10 06:04:12;;;;;;;3.45;1.92;;;13.40;91.70;;;;;;5097890;28;20143;-75
2023/05/10 06:06:38;;;;;;;3.20;1.70;;;13.40;91.70;;;;;;5133297;28;20039;-75
2023/05/10 06:09:04;;;;;;;3.58;1.88;;;13.40;91.70;;;;;;5133690;28;20134;-75
2023/05/10 06:11:31;;;;;;;3.03;1.65;;;13.40;91.70;;;;;;5133376;28;20067;-75
2023/05/10 06:14:03;;;;;;;3.25;1.85;;;13.40;91.70;;;;;;5115130;28;20486;-75
2023/05/10 06:16:29;;;;;;;3.15;1.77;;;13.40;92.00;;;;;;5132907;28;20108;-75
2023/05/10 06:18:55;;;;;;;3.55;1.95;;;13.40;91.70;;;;;;5115095;28;20490;-75
2023/05/10 06:21:21;;;;;;;3.63;1.85;;;13.50;91.70;;;;;;5132940;28;20039;-75
2023/05/10 06:23:46;;;;;;;3.22;1.80;;;13.50;91.60;;;;;;5133278;28;20043;-75
2023/05/10 06:26:13;;;;;;;2.85;1.70;;;13.50;91.60;;;;;;5132821;28;20518;-75
2023/05/10 06:28:39;;;;;;;4.32;2.28;;;13.50;91.60;;;;;;5114774;28;20045;-75
2023/05/10 06:31:06;;;;;;;3.75;1.80;;;13.60;91.70;;;;;;5132962;27;20047;-75
2023/05/10 06:33:32;;;;;;;3.75;1.95;;;13.60;91.70;;;;;;5115915;28;20038;-75
2023/05/10 06:35:58;;;;;;;3.58;1.98;;;13.60;91.70;;;;;;5136588;28;20483;-75
2023/05/10 06:38:24;;;;;;;3.15;2.00;;;13.50;91.60;;;;;;5136875;28;20042;-73
2023/05/10 06:40:49;;;;;;;4.45;2.30;;;13.60;91.70;;;;;;5118686;28;20572;-75
2023/05/10 06:43:15;;;;;;;3.78;2.00;;;13.50;91.70;;;;;;5136456;28;20122;-73
2023/05/10 06:45:41;;;;;;;4.53;2.40;;;13.60;91.70;;;;;;5136184;28;20043;-74
2023/05/10 06:48:07;;;;;;;4.35;2.25;;;13.60;91.70;;;;;;5136277;28;20046;-73
2023/05/10 06:50:35;;;;;;;3.55;2.15;;;13.60;91.70;;;;;;5135807;28;20104;-73
2023/05/10 06:53:03;;;;;;;3.80;2.10;;;13.60;91.70;;;;;;5135833;28;20035;-74
2023/05/10 06:55:31;;;;;;;4.95;2.10;;;13.50;91.70;;;;;;5083958;28;20078;-73
2023/05/10 06:58:00;;;;;;;4.57;2.50;;;13.60;91.70;;;;;;5100598;28;20039;-73
2023/05/10 07:03:52;;;;;;;4.35;2.30;;;13.60;91.70;;;;;;5080154;28;20094;-74
2023/05/10 07:09:57;;;;;;;3.38;1.75;;;13.60;91.70;;;;;;5077573;28;20051;-73
2023/05/10 07:12:35;;;;;;;3.22;1.95;;;13.70;91.70;;;;;;4999484;28;20049;-72
2023/05/10 07:15:01;;;;;;;3.65;2.08;;;13.70;91.70;;;;;;5032897;28;20087;-73
2023/05/10 07:21:10;;;;;;;5.65;2.88;;;13.60;91.70;;;;;;4894858;29;20052;-72
2023/05/10 07:27:34;;;;;;;4.07;1.88;;;13.60;91.70;;;;;;4909292;29;20038;-72
2023/05/10 07:30:12;;;;;;;5.25;2.65;;;13.60;91.60;;;;;;4916215;29;20048;-73
2023/05/10 07:37:04;;;;;;;5.15;2.60;;;13.70;91.70;;;;;;4933399;29;20471;-72
2023/05/10 07:39:29;;;;;;;4.38;2.38;;;13.60;91.60;;;;;;4895911;29;20527;-73
2023/05/10 07:42:13;;;;;;;3.97;2.22;;;13.70;91.60;;;;;;4896961;29;20060;-73
2023/05/10 07:44:39;;;;;;;4.72;2.40;;;13.70;91.60;;;;;;4915104;29;20702;-73
2023/05/10 07:47:37;;;;;;;3.88;2.17;;;13.70;91.60;;;;;;4916452;29;20068;-73
2023/05/10 07:50:25;;;;;;;4.72;2.40;;;13.80;91.60;;;;;;4878743;29;20053;-72
2023/05/10 07:52:50;;;;;;;4.28;2.30;;;13.70;91.60;;;;;;4912340;29;20044;-72
2023/05/10 07:56:00;;;;;;;5.13;2.67;;;13.80;91.60;;;;;;4896629;29;20549;-73
2023/05/10 07:58:59;;;;;;;5.43;2.55;;;13.90;91.60;;;;;;4879297;29;20107;-73
2023/05/10 08:08:15;;;;;;;3.42;2.10;;;14.10;91.50;;;;;;4876820;29;20152;-72
2023/05/10 08:11:30;;;;;;;3.85;1.98;;;14.20;91.40;;;;;;4888034;29;20049;-73
2023/05/10 08:13:56;;;;;;;5.03;2.58;;;14.20;91.30;;;;;;4837831;29;20486;-73
2023/05/10 08:16:22;;;;;;;5.75;2.78;;;14.40;91.20;;;;;;4837553;29;20049;-72
2023/05/10 08:18:48;;;;;;;5.80;2.70;;;14.40;91.20;;;;;;4822515;29;20038;-72
2023/05/10 08:21:15;;;;;;;5.40;2.90;;;14.40;91.10;;;;;;4823873;29;20103;-72
2023/05/10 08:23:41;;;;;;;5.97;3.15;;;14.50;91.40;;;;;;4839180;29;20046;-73
2023/05/10 08:26:07;;;;;;;7.88;3.20;;;14.50;91.40;;;;;;4825436;29;20475;-72
2023/05/10 08:28:32;;;;;;;7.28;3.30;;;14.50;91.20;;;;;;4841198;29;20098;-73
2023/05/10 08:31:04;;;;;;;6.00;3.17;;;14.50;91.30;;;;;;4840768;29;20046;-73
2023/05/10 08:33:41;;;;;;;6.55;3.50;;;14.50;91.20;;;;;;4813377;29;20042;-73
2023/05/10 08:36:14;;;;;;;5.68;3.10;;;14.60;91.30;;;;;;4787928;29;20059;-72
2023/05/10 08:38:44;;;;;;;7.18;3.25;;;14.60;91.20;;;;;;4825097;29;20048;-73
2023/05/10 08:41:24;;;;;;;5.80;3.53;;;14.70;91.10;;;;;;4837999;29;20055;-72
2023/05/10 08:43:53;;;;;;;5.07;3.28;;;14.70;91.10;;;;;;4864492;29;20489;-72
2023/05/10 08:46:21;;;;;;;4.35;2.55;;;14.60;91.40;;;;;;4914069;29;20107;-73
2023/05/10 08:48:49;;;;;;;4.93;2.58;;;14.70;91.10;;;;;;4933742;29;20542;-74
2023/05/10 08:51:18;;;;;;;6.43;3.47;;;14.60;91.10;;;;;;4949471;28;20043;-74
2023/05/10 08:53:45;;;;;;;5.90;2.50;;;14.60;91.10;;;;;;4949762;28;20126;-74
2023/05/10 08:56:17;;;;;;;6.28;3.05;;;14.60;91.10;;;;;;4948091;28;20127;-74
2023/05/10 08:59:06;;;;;;;4.93;2.60;;;14.60;91.20;;;;;;4931262;29;20148;-75
2023/05/10 09:01:44;;;;;;;5.07;2.88;;;14.60;91.20;;;;;;4959586;28;20125;-74
2023/05/10 09:04:14;;;;;;;4.15;2.17;;;14.60;91.20;;;;;;4926260;29;20055;-74
2023/05/10 09:06:46;;;;;;;3.08;2.03;;;14.70;91.20;;;;;;4899256;29;20059;-74
2023/05/10 09:09:14;;;;;;;3.92;2.30;;;14.80;91.10;;;;;;4900151;28;20117;-73
2023/05/10 09:11:40;;;;;;;3.67;2.08;;;14.80;90.90;;;;;;4953810;28;20047;-72
2023/05/10 09:14:07;;;;;;;3.33;1.85;;;14.90;90.90;;;;;;4955914;28;20074;-73
2023/05/10 09:16:33;;;;;;;2.58;1.77;;;14.90;90.90;;;;;;4955302;28;20057;-73
2023/05/10 09:18:59;;;;;;;2.42;1.52;;;14.80;90.90;;;;;;4955515;28;20042;-73
2023/05/10 09:21:25;;;;;;;3.33;1.85;;;14.80;90.90;;;;;;4942669;28;20043;-73
2023/05/10 09:23:54;;;;;;;2.25;1.65;;;14.90;90.90;;;;;;4935806;29;20035;-72
2023/05/10 09:26:23;;;;;;;2.50;1.55;;;14.90;90.90;;;;;;4942782;28;20139;-73
2023/05/10 09:28:52;;;;;;;1.30;1.17;;;14.90;90.90;;;;;;4962047;28;20055;-73
2023/05/10 09:31:18;;;;;;;1.73;1.20;;;15.10;90.90;;;;;;4983876;28;20071;-74
2023/05/10 09:33:46;;;;;;;1.55;1.20;;;15.20;90.90;;;;;;4967720;28;20039;-74
2023/05/10 09:36:12;;;;;;;1.92;1.33;;;15.20;90.70;;;;;;4988843;28;20034;-73
2023/05/10 09:38:52;;;;;;;1.55;1.23;;;15.30;90.60;;;;;;4989497;28;20058;-74
2023/05/10 09:41:21;;;;;;;2.50;1.35;;;15.40;90.50;;;;;;5007774;28;20501;-73
2023/05/10 09:43:48;;;;;;;1.80;1.30;;;15.70;90.50;;;;;;5035051;28;20045;-75
2023/05/10 09:46:16;;;;;;;2.65;1.40;;;15.90;90.40;;;;;;5052051;28;20124;-75
2023/05/10 09:59:54;;;;;;;1.85;1.38;;;15.70;89.90;;;;;;5028930;28;20056;-75
2023/05/10 10:02:20;;;;;;;1.70;1.20;;;15.50;90.20;;;;;;5016304;28;20067;-74
2023/05/10 10:04:50;;;;;;;2.20;1.33;;;15.40;90.30;;;;;;5033008;28;20059;-73
2023/05/10 10:07:23;;;;;;;2.33;1.60;;;15.40;90.40;;;;;;5033096;28;20067;-74
2023/05/10 10:09:50;;;;;;;1.77;1.20;;;15.40;90.40;;;;;;5033560;28;20068;-73
2023/05/10 10:12:16;;;;;;;1.13;1.00;;;15.40;90.40;;;;;;5032808;28;20041;-72
2023/05/10 10:14:43;;;;;;;1.90;1.20;;;15.40;90.40;;;;;;5033025;28;20053;-73
2023/05/10 10:17:09;;;;;;;1.83;1.25;;;15.40;90.40;;;;;;5033466;28;20172;-73
2023/05/10 10:19:36;;;;;;;1.63;1.30;;;15.40;90.30;;;;;;5033517;28;20103;-74
2023/05/10 10:22:11;;;;;;;2.03;1.33;;;15.40;90.30;;;;;;5032683;28;20244;-75
2023/05/10 10:24:39;;;;;;;2.67;1.45;;;15.50;90.30;;;;;;5009075;28;20444;-74
2023/05/10 10:27:20;;;;;;;2.15;1.35;;;15.60;90.20;;;;;;4997575;28;20045;-73
2023/05/10 10:29:53;;;;;;;;;;;15.60;90.20;;;;;;5055242;28;20162;-73
2023/05/10 10:32:30;;;;;;;2.17;1.10;;;15.80;90.10;;;;;;5055706;28;20082;-72
2023/05/10 10:34:56;;;;;;;1.42;0.95;;;15.80;90.00;;;;;;5025659;28;20043;-73
2023/05/10 10:37:22;;;;;;;2.17;1.30;;;15.80;89.90;;;;;;5024974;28;20113;-73
2023/05/10 10:39:50;;;;;;;2.42;1.63;;;15.70;89.70;;;;;;5022725;28;20051;-73
2023/05/10 10:42:51;;;;;;;2.80;1.50;;;15.70;89.70;;;;;;5023132;28;20087;-73
2023/05/10 10:45:17;;;;;;;1.65;1.17;;;15.70;89.80;;;;;;5055303;28;20056;-73
2023/05/10 10:47:43;;;;;;;2.30;1.35;;;15.60;89.80;;;;;;5022702;28;20542;-74
2023/05/10 10:50:12;;;;;;;3.38;1.60;;;15.60;89.70;;;;;;5023112;28;20075;-73
2023/05/10 11:00:23;;;;;;;1.55;1.23;;;15.90;89.70;;;;;;5006700;28;20893;-74
2023/05/10 11:03:02;;;;;;;2.65;1.70;;;16.00;89.40;;;;;;4991280;28;20522;-72
2023/05/10 11:05:47;;;;;;;3.13;1.83;;;16.10;88.80;;;;;;4992954;28;20080;-75
2023/05/10 11:08:35;;;;;;;2.65;1.42;;;16.20;88.50;;;;;;4953883;28;20493;-73
2023/05/10 11:11:06;;;;;;;2.38;1.40;;;16.10;88.60;;;;;;4972825;28;20125;-73
2023/05/10 11:13:37;;;;;;;;;;;16.10;88.50;;;;;;4973331;28;20046;-74
2023/05/10 11:16:12;;;;;;;1.88;1.40;;;16.00;88.60;;;;;;4990719;28;19972;-73
2023/05/10 11:18:39;;;;;;;2.33;1.48;;;16.20;88.60;;;;;;4948989;28;20522;-73
2023/05/10 11:21:05;;;;;;;2.70;1.67;;;16.10;88.70;;;;;;4997499;28;20077;-73
2023/05/10 11:23:47;;;;;;;2.80;1.60;;;16.10;88.60;;;;;;5015931;28;20104;-73
2023/05/10 11:26:16;;;;;;;1.73;1.20;;;16.10;88.40;;;;;;5014569;28;20404;-73
2023/05/10 11:28:50;;;;;;;2.03;1.17;;;16.10;88.60;;;;;;4978205;28;20433;-73
2023/05/10 11:31:18;;;;;;;2.45;1.70;;;16.10;88.40;;;;;;4963760;28;20379;-74
2023/05/10 11:33:48;;;;;;;2.97;1.77;;;16.20;88.40;;;;;;4964200;28;20046;-73
2023/05/10 11:36:16;;;;;;;1.80;1.27;;;16.40;88.30;;;;;;5010454;28;20097;-73
2023/05/10 11:38:58;;;;;;;2.40;1.50;;;16.50;88.00;;;;;;5038871;28;20275;-72
2023/05/10 12:45:35;;;;;;;0.95;0.90;;;17.50;86.30;;;;;;6129621;23;20526;-75
2023/05/10 12:48:05;;;;;;;1.20;1.10;;;17.40;86.20;;;;;;6079684;23;20020;-74
2023/05/10 12:50:33;;;;;;;2.28;1.10;;;17.50;86.30;;;;;;6057955;23;20022;-75
2023/05/10 12:53:04;;;;;;;1.80;1.20;;;17.50;86.30;;;;;;6106046;23;20046;-74
2023/05/10 12:55:33;;;;;;;;;;;17.60;86.00;;;;;;6081299;23;20013;-74
2023/05/10 12:58:04;;;;;;;1.05;0.93;;;17.60;86.00;;;;;;6102660;23;19932;-74
2023/05/10 13:00:47;;;;;;;1.00;0.85;;;17.70;86.00;;;;;;6105391;23;20013;-74
2023/05/10 13:08:02;;;;;;;1.08;0.90;;;17.70;85.70;;;;;;5956216;24;20116;-75
2023/05/10 13:14:40;;;;;;;0.68;0.60;;;17.70;85.80;;;;;;5901724;24;20025;-74
2023/05/10 13:25:21;;;;;;;2.00;1.15;;;17.80;85.30;;;;;;5715019;25;20397;-73
2023/05/10 13:27:47;;;;;;;1.13;0.90;;;17.70;85.50;;;;;;5696912;25;20521;-73
2023/05/10 13:30:12;;;;;;;1.42;1.10;;;17.60;85.60;;;;;;5718780;25;20052;-73
2023/05/10 13:32:38;;;;;;;2.13;1.10;;;17.50;85.90;;;;;;5718579;25;20024;-73
2023/05/10 13:35:04;;;;;;;1.40;1.10;;;17.40;86.10;;;;;;5718589;25;20023;-73
2023/05/10 13:37:31;;;;;;;1.98;1.45;;;17.30;86.20;;;;;;5742065;24;20035;-73
2023/05/10 13:39:57;;;;;;;2.08;1.40;;;17.10;86.50;;;;;;5753028;24;20119;-73
2023/05/10 13:42:23;;;;;;;2.30;1.20;;;17.00;86.90;;;;;;5772910;24;20047;-73
2023/05/10 13:44:50;;;;;;;1.23;1.10;;;16.80;87.20;;;;;;5790629;24;20085;-72
2023/05/10 13:47:16;;;;;;;1.98;1.45;;;16.70;87.40;;;;;;5794620;24;20089;-69
2023/05/10 13:49:44;;;;;;;2.70;1.27;;;16.60;87.60;;;;;;5817261;24;20464;-70
2023/05/10 13:52:10;;;;;;;2.53;1.52;;;16.50;87.90;;;;;;5946422;24;20028;-71
2023/05/10 13:54:37;;;;;;;2.45;1.40;;;16.50;88.00;;;;;;5981013;23;20351;-72
2023/05/10 13:57:04;;;;;;;1.40;1.30;;;16.40;87.90;;;;;;6117618;22;20016;-72
2023/05/10 13:59:31;;;;;;;2.03;1.52;;;16.40;87.90;;;;;;6276497;22;20352;-72
2023/05/10 14:01:58;;;;;;;1.50;1.40;;;16.50;87.90;;;;;;6276021;22;20014;-72
2023/05/10 14:04:23;;;;;;;1.33;1.23;;;16.40;87.80;;;;;;6246678;22;20498;-72
2023/05/10 14:06:49;;;;;;;2.38;1.42;;;16.40;87.90;;;;;;6276539;22;20007;-72
2023/05/10 14:09:15;;;;;;;1.60;1.20;;;16.30;87.80;;;;;;6247759;22;20329;-72
2023/05/10 14:11:43;;;;;;;2.15;1.38;;;16.30;87.80;;;;;;6275754;22;20129;-72
2023/05/10 14:14:09;;;;;;;1.67;1.42;;;16.30;87.70;;;;;;6276075;22;20007;-72
2023/05/10 14:16:35;;;;;;;1.50;1.15;;;16.20;87.70;;;;;;6276398;22;20011;-72
2023/05/10 14:19:01;;;;;;;1.50;1.30;;;16.30;87.80;;;;;;6275774;22;20011;-72
2023/05/10 14:21:29;;;;;;;1.80;1.40;;;16.30;87.80;;;;;;6275925;22;20006;-72
2023/05/10 14:23:55;;;;;;;2.85;1.77;;;16.30;87.60;;;;;;6275910;22;20339;-72
2023/05/10 14:26:21;;;;;;;1.90;1.45;;;16.40;87.50;;;;;;6275574;22;20011;-72
2023/05/10 14:28:47;;;;;;;2.20;1.70;;;16.40;87.40;;;;;;6276091;22;20016;-72
2023/05/10 14:31:13;;;;;;;1.83;1.50;;;16.40;87.30;;;;;;6276074;22;20320;-72
2023/05/10 14:33:39;;;;;;;1.77;1.50;;;16.40;87.40;;;;;;6276375;22;20015;-71
2023/05/10 14:36:08;;;;;;;2.97;1.15;;;16.50;87.20;;;;;;6248604;22;20008;-72
2023/05/10 14:38:34;;;;;;;2.90;1.40;;;16.40;87.20;;;;;;6157308;23;20020;-71
2023/05/10 14:40:59;;;;;;;1.20;1.10;;;16.40;87.90;;;;;;6157215;23;20017;-71
2023/05/10 14:43:27;;;;;;;1.40;1.20;;;16.30;87.20;;;;;;6182205;23;20021;-72
2023/05/10 14:45:52;;;;;;;1.70;1.38;;;16.40;87.40;;;;;;6158299;23;20019;-72
2023/05/10 14:48:18;;;;;;;1.30;1.10;;;16.40;87.40;;;;;;6182154;23;20021;-71
2023/05/10 14:50:44;;;;;;;1.00;0.90;;;16.40;87.20;;;;;;6182671;23;20420;-72
2023/05/10 14:53:10;;;;;;;1.50;1.30;;;16.40;87.20;;;;;;6178932;23;20068;-73
2023/05/10 14:55:36;;;;;;;1.52;1.17;;;16.40;87.20;;;;;;6182329;23;20013;-72
2023/05/10 14:58:03;;;;;;;1.50;1.27;;;16.40;87.10;;;;;;6157022;23;20432;-72
2023/05/10 15:00:29;;;;;;;1.67;1.17;;;16.40;87.00;;;;;;6132572;23;20445;-72
2023/05/10 15:02:55;;;;;;;1.13;1.02;;;16.40;86.80;;;;;;6157545;23;20017;-72